首页
METAR-TAF:

METAR-TAF

机场 :

Scatsta, 设德兰群岛, 苏格兰

纬度: 60-26N, 经度: 001-18W, 海拔: 22米

当前天气观测

该预报发布于33分钟前的08:20 UTC
风速20节,风向东南
温度 11°C
湿度 94%
气压 1009 hPa
能见度10公里或以上

METAR: EGPM 220820Z AUTO 14020KT 9999 BKN003/// 11/10 Q1009

时间: 09:53 (08:53 UTC)

预报

该预报发布于3小时和12分钟前的05:41 UTC
预报有效从22日的 06点(UTC)到 22日的 15点(UTC)
风速22节,风向东南
能见度10公里或以上
散云层高于600英尺
短暂存在
从 22日的 06点(UTC)到 22日的 15点(UTC)
风速25节,风向南转南东,有时为35节阵风
几率 40% :
短暂存在
从 22日的 06点(UTC)到 22日的 15点(UTC)
能見度: 6000
多云层高于400英尺

TAF: EGPM 220541Z 2206/2215 14022KT 9999 SCT006 TEMPO 2206/2215 15025G35KT PROB40 TEMPO 2206/2215 6000 BKN004

超过4000个机场的气象观测和天气预报(METAR&TAF报告)。

可查询的气象台以黄色和红色小点在地图上表示。

将鼠标移到小点上方,可查看气象台名称。

然后点击查看天气观测和预报。

如需切换地图:点击带黑十字的绿色按钮放大地图;点击带横线的绿色按钮缩小地图;或者点击绿色箭头查看邻近地区的地图。


METAR-TAF: